AVA8456 SKPS-SKBO
Flight info
| Callsign | AVA8456 |
|---|---|
| Flight time | 0h 50m |
| Altitude | 35000 |
| Route | TITGU DCT ESARO DCT GIR GIR5E |
| Aircraft | A320/M-SDE3FGHIRWY/LB1 |
Departure
| Time | 2026-05-06 19:18 |
|---|---|
| Airport | Antonio Nariño Airport (SKPS) |
Arrival
| Time | 2026-05-06 20:08 |
|---|---|
| Airport | El Dorado International Airport (SKBO) |
| Time | Latitude | Longitude | Altitude | Speed | Heading |
|---|---|---|---|---|---|
| 2026-05-06 18:48 | 1.39574 | -77.28991 | 5908 ft | 0 kts | 105° |
| 2026-05-06 19:07 | 1.39575 | -77.28993 | 5908 ft | 2 kts | 105° |
| 2026-05-06 19:07 | 1.39581 | -77.29018 | 5903 ft | 4 kts | 102° |
| 2026-05-06 19:07 | 1.39586 | -77.29044 | 5908 ft | 4 kts | 101° |
| 2026-05-06 19:08 | 1.39592 | -77.29068 | 5908 ft | 1 kts | 105° |
| 2026-05-06 19:08 | 1.39599 | -77.29090 | 5908 ft | 4 kts | 118° |
| 2026-05-06 19:08 | 1.39614 | -77.29107 | 5907 ft | 4 kts | 176° |
| 2026-05-06 19:08 | 1.39622 | -77.29107 | 5907 ft | 1 kts | 195° |
| 2026-05-06 19:13 | 1.39613 | -77.29109 | 5907 ft | 3 kts | 195° |
| 2026-05-06 19:13 | 1.39555 | -77.29125 | 5910 ft | 11 kts | 194° |
| 2026-05-06 19:13 | 1.39501 | -77.29139 | 5913 ft | 5 kts | 194° |
| 2026-05-06 19:14 | 1.39487 | -77.29142 | 5914 ft | 0 kts | 194° |
| 2026-05-06 19:14 | 1.39486 | -77.29142 | 5914 ft | 2 kts | 194° |
| 2026-05-06 19:14 | 1.39410 | -77.29162 | 5918 ft | 19 kts | 195° |
| 2026-05-06 19:14 | 1.39286 | -77.29196 | 5925 ft | 17 kts | 196° |
| 2026-05-06 19:15 | 1.39185 | -77.29225 | 5931 ft | 14 kts | 196° |
| 2026-05-06 19:15 | 1.39108 | -77.29248 | 5935 ft | 9 kts | 196° |
| 2026-05-06 19:15 | 1.39020 | -77.29271 | 5940 ft | 20 kts | 194° |
| 2026-05-06 19:15 | 1.38872 | -77.29309 | 5945 ft | 21 kts | 194° |
| 2026-05-06 19:16 | 1.38756 | -77.29338 | 5954 ft | 14 kts | 194° |
| 2026-05-06 19:16 | 1.38675 | -77.29345 | 5958 ft | 3 kts | 172° |
| 2026-05-06 19:16 | 1.38665 | -77.29361 | 5962 ft | 7 kts | 273° |
| 2026-05-06 19:16 | 1.38701 | -77.29357 | 5948 ft | 11 kts | 18° |
| 2026-05-06 19:17 | 1.38991 | -77.29275 | 5938 ft | 83 kts | 15° |
| 2026-05-06 19:17 | 1.39786 | -77.29062 | 5899 ft | 150 kts | 15° |
| 2026-05-06 19:17 | 1.40788 | -77.28779 | 6489 ft | 157 kts | 18° |
| 2026-05-06 19:18 | 1.40992 | -77.28724 | 6634 ft | 155 kts | 15° |
| 2026-05-06 19:18 | 1.41857 | -77.28529 | 7216 ft | 155 kts | 13° |
| 2026-05-06 19:18 | 1.42098 | -77.28470 | 7371 ft | 157 kts | 14° |
| 2026-05-06 19:19 | 1.43160 | -77.28194 | 8028 ft | 158 kts | 18° |
| 2026-05-06 19:19 | 1.44213 | -77.27910 | 8474 ft | 157 kts | 19° |
| 2026-05-06 19:19 | 1.45281 | -77.27647 | 8906 ft | 159 kts | 12° |
| 2026-05-06 19:19 | 1.46410 | -77.27578 | 9244 ft | 170 kts | 2° |
| 2026-05-06 19:20 | 1.47657 | -77.27777 | 9404 ft | 194 kts | 350° |
| 2026-05-06 19:20 | 1.49045 | -77.28113 | 9473 ft | 217 kts | 349° |
| 2026-05-06 19:20 | 1.50586 | -77.28481 | 9623 ft | 239 kts | 349° |
| 2026-05-06 19:20 | 1.52265 | -77.28881 | 9750 ft | 257 kts | 349° |
| 2026-05-06 19:21 | 1.54060 | -77.29311 | 9938 ft | 281 kts | 349° |
| 2026-05-06 19:21 | 1.56046 | -77.29787 | 10198 ft | 305 kts | 349° |
| 2026-05-06 19:21 | 1.58224 | -77.30310 | 10449 ft | 330 kts | 348° |
| 2026-05-06 19:21 | 1.60501 | -77.30857 | 10706 ft | 350 kts | 348° |
| 2026-05-06 19:22 | 1.62903 | -77.31437 | 11208 ft | 359 kts | 349° |
| 2026-05-06 19:22 | 1.65354 | -77.32031 | 11801 ft | 364 kts | 348° |
| 2026-05-06 19:22 | 1.67827 | -77.32631 | 12507 ft | 367 kts | 349° |
| 2026-05-06 19:22 | 1.70325 | -77.33216 | 13174 ft | 370 kts | 352° |
| 2026-05-06 19:23 | 1.72876 | -77.33550 | 13855 ft | 370 kts | 360° |
| 2026-05-06 19:23 | 1.75455 | -77.33528 | 14435 ft | 370 kts | 8° |
| 2026-05-06 19:23 | 1.77992 | -77.33129 | 15047 ft | 370 kts | 17° |
| 2026-05-06 19:23 | 1.80447 | -77.32370 | 15613 ft | 369 kts | 24° |
| 2026-05-06 19:24 | 1.82773 | -77.31284 | 16225 ft | 369 kts | 31° |
| 2026-05-06 19:24 | 1.84934 | -77.29898 | 16807 ft | 369 kts | 39° |
| 2026-05-06 19:24 | 1.86977 | -77.28328 | 17393 ft | 371 kts | 39° |
| 2026-05-06 19:24 | 1.89039 | -77.26759 | 17934 ft | 374 kts | 39° |
| 2026-05-06 19:25 | 1.90417 | -77.25711 | 18296 ft | 376 kts | 40° |
| 2026-05-06 19:25 | 1.92829 | -77.23227 | 18894 ft | 378 kts | 55° |
| 2026-05-06 19:25 | 1.94334 | -77.21068 | 19343 ft | 380 kts | 57° |
| 2026-05-06 19:25 | 1.95845 | -77.18886 | 19802 ft | 383 kts | 57° |
| 2026-05-06 19:26 | 1.96874 | -77.17404 | 20098 ft | 385 kts | 56° |
| 2026-05-06 19:26 | 1.98407 | -77.15203 | 20545 ft | 387 kts | 56° |
| 2026-05-06 19:26 | 1.99951 | -77.12991 | 20981 ft | 389 kts | 56° |
| 2026-05-06 19:26 | 2.01503 | -77.10763 | 21421 ft | 392 kts | 56° |
| 2026-05-06 19:27 | 2.03063 | -77.08520 | 21858 ft | 394 kts | 56° |
| 2026-05-06 19:27 | 2.04609 | -77.06293 | 22293 ft | 396 kts | 56° |
| 2026-05-06 19:27 | 2.06187 | -77.04020 | 22715 ft | 399 kts | 56° |
| 2026-05-06 19:27 | 2.07772 | -77.01740 | 23131 ft | 401 kts | 56° |
| 2026-05-06 19:28 | 2.09368 | -76.99445 | 23529 ft | 403 kts | 56° |
| 2026-05-06 19:28 | 2.10974 | -76.97136 | 23879 ft | 406 kts | 56° |
| 2026-05-06 19:28 | 2.12590 | -76.94809 | 24198 ft | 408 kts | 56° |
| 2026-05-06 19:28 | 2.14212 | -76.92470 | 24545 ft | 411 kts | 56° |
| 2026-05-06 19:29 | 2.15845 | -76.90119 | 24868 ft | 413 kts | 56° |
| 2026-05-06 19:29 | 2.17493 | -76.87748 | 25178 ft | 416 kts | 56° |
| 2026-05-06 19:29 | 2.19147 | -76.85372 | 25519 ft | 417 kts | 57° |
| 2026-05-06 19:29 | 2.20802 | -76.82991 | 25904 ft | 417 kts | 57° |
| 2026-05-06 19:30 | 2.22444 | -76.80625 | 26205 ft | 420 kts | 57° |
| 2026-05-06 19:30 | 2.24113 | -76.78219 | 26525 ft | 423 kts | 56° |
| 2026-05-06 19:30 | 2.25800 | -76.75791 | 26790 ft | 427 kts | 56° |
| 2026-05-06 19:30 | 2.27500 | -76.73346 | 27068 ft | 430 kts | 56° |
| 2026-05-06 19:31 | 2.29213 | -76.70887 | 27361 ft | 432 kts | 56° |
| 2026-05-06 19:31 | 2.30934 | -76.68416 | 27647 ft | 434 kts | 56° |
| 2026-05-06 19:31 | 2.34397 | -76.63425 | 28244 ft | 439 kts | 56° |
| 2026-05-06 19:32 | 2.36175 | -76.60930 | 28525 ft | 441 kts | 52° |
| 2026-05-06 19:32 | 2.38262 | -76.58666 | 28800 ft | 445 kts | 45° |
| 2026-05-06 19:32 | 2.40514 | -76.56534 | 29069 ft | 447 kts | 45° |
| 2026-05-06 19:32 | 2.42784 | -76.54388 | 29336 ft | 449 kts | 45° |
| 2026-05-06 19:33 | 2.45058 | -76.52239 | 29599 ft | 451 kts | 45° |
| 2026-05-06 19:33 | 2.47345 | -76.50073 | 29845 ft | 453 kts | 46° |
| 2026-05-06 19:33 | 2.49630 | -76.47904 | 30237 ft | 451 kts | 46° |
| 2026-05-06 19:33 | 2.51911 | -76.45736 | 30450 ft | 453 kts | 45° |
| 2026-05-06 19:34 | 2.54191 | -76.43562 | 30657 ft | 454 kts | 46° |
| 2026-05-06 19:34 | 2.56484 | -76.41373 | 30813 ft | 456 kts | 46° |
| 2026-05-06 19:34 | 2.58787 | -76.39180 | 30999 ft | 458 kts | 44° |
| 2026-05-06 19:34 | 2.61104 | -76.36971 | 31150 ft | 461 kts | 46° |
| 2026-05-06 19:35 | 2.63426 | -76.34756 | 31386 ft | 462 kts | 45° |
| 2026-05-06 19:35 | 2.65725 | -76.32570 | 31669 ft | 461 kts | 45° |
| 2026-05-06 19:35 | 2.68056 | -76.30358 | 31901 ft | 461 kts | 46° |
| 2026-05-06 19:35 | 2.70388 | -76.28149 | 32166 ft | 461 kts | 45° |
| 2026-05-06 19:36 | 2.72713 | -76.25945 | 32422 ft | 461 kts | 45° |
| 2026-05-06 19:36 | 2.75036 | -76.23736 | 32703 ft | 461 kts | 45° |
| 2026-05-06 19:36 | 2.77360 | -76.21520 | 33007 ft | 461 kts | 45° |
| 2026-05-06 19:36 | 2.79680 | -76.19308 | 33293 ft | 461 kts | 45° |
| 2026-05-06 19:37 | 2.82002 | -76.17093 | 33511 ft | 462 kts | 46° |
| 2026-05-06 19:37 | 2.84327 | -76.14872 | 33777 ft | 462 kts | 45° |
| 2026-05-06 19:37 | 2.86653 | -76.12654 | 34089 ft | 461 kts | 46° |
| 2026-05-06 19:37 | 2.88975 | -76.10447 | 34391 ft | 460 kts | 45° |
| 2026-05-06 19:38 | 2.91298 | -76.08245 | 34666 ft | 459 kts | 45° |
| 2026-05-06 19:38 | 2.93622 | -76.06047 | 34928 ft | 460 kts | 45° |
| 2026-05-06 19:38 | 2.95945 | -76.03853 | 35112 ft | 460 kts | 45° |
| 2026-05-06 19:38 | 2.98269 | -76.01652 | 35157 ft | 457 kts | 46° |
| 2026-05-06 19:39 | 3.02851 | -75.97298 | 35167 ft | 453 kts | 46° |
| 2026-05-06 19:39 | 3.07410 | -75.92959 | 35162 ft | 452 kts | 44° |
| 2026-05-06 19:40 | 3.11633 | -75.88940 | 35150 ft | 452 kts | 44° |
| 2026-05-06 19:40 | 3.16163 | -75.84631 | 35148 ft | 451 kts | 45° |
| 2026-05-06 19:41 | 3.20721 | -75.80306 | 35142 ft | 451 kts | 45° |
| 2026-05-06 19:41 | 3.25287 | -75.75972 | 35104 ft | 452 kts | 44° |
| 2026-05-06 19:42 | 3.29847 | -75.71638 | 35096 ft | 452 kts | 45° |
| 2026-05-06 19:42 | 3.34411 | -75.67303 | 35096 ft | 453 kts | 44° |
| 2026-05-06 19:43 | 3.38978 | -75.62962 | 35040 ft | 453 kts | 44° |
| 2026-05-06 19:43 | 3.43513 | -75.58641 | 35043 ft | 452 kts | 45° |
| 2026-05-06 19:44 | 3.48072 | -75.54296 | 35046 ft | 453 kts | 45° |
| 2026-05-06 19:44 | 3.52647 | -75.49955 | 35046 ft | 453 kts | 44° |
| 2026-05-06 19:45 | 3.57216 | -75.45616 | 34989 ft | 452 kts | 45° |
| 2026-05-06 19:45 | 3.61780 | -75.41266 | 34995 ft | 452 kts | 44° |
| 2026-05-06 19:46 | 3.66343 | -75.36928 | 34997 ft | 452 kts | 44° |
| 2026-05-06 19:46 | 3.70874 | -75.32618 | 34961 ft | 452 kts | 44° |
| 2026-05-06 19:47 | 3.75430 | -75.28279 | 34966 ft | 451 kts | 44° |
| 2026-05-06 19:47 | 3.79979 | -75.23944 | 34969 ft | 451 kts | 44° |
| 2026-05-06 19:48 | 3.84530 | -75.19612 | 34938 ft | 451 kts | 44° |
| 2026-05-06 19:48 | 3.89056 | -75.15307 | 34934 ft | 452 kts | 44° |
| 2026-05-06 19:49 | 3.93610 | -75.10976 | 34933 ft | 444 kts | 44° |
| 2026-05-06 19:49 | 3.95822 | -75.08869 | 34937 ft | 433 kts | 45° |
| 2026-05-06 19:49 | 3.97992 | -75.06801 | 34940 ft | 429 kts | 44° |
| 2026-05-06 19:50 | 4.02305 | -75.02692 | 34930 ft | 427 kts | 45° |
| 2026-05-06 19:50 | 4.06604 | -74.98586 | 34932 ft | 429 kts | 44° |
| 2026-05-06 19:51 | 4.08791 | -74.96500 | 34615 ft | 438 kts | 44° |
| 2026-05-06 19:51 | 4.11022 | -74.94373 | 33773 ft | 445 kts | 44° |
| 2026-05-06 19:51 | 4.13251 | -74.92253 | 32928 ft | 448 kts | 44° |
| 2026-05-06 19:51 | 4.15400 | -74.90210 | 32408 ft | 444 kts | 44° |
| 2026-05-06 19:52 | 4.17766 | -74.88244 | 31880 ft | 441 kts | 34° |
| 2026-05-06 19:52 | 4.20471 | -74.86817 | 31380 ft | 439 kts | 22° |
| 2026-05-06 19:52 | 4.23389 | -74.85994 | 30679 ft | 433 kts | 11° |
| 2026-05-06 19:52 | 4.26372 | -74.85573 | 29500 ft | 434 kts | 9° |
| 2026-05-06 19:53 | 4.29381 | -74.85181 | 27964 ft | 439 kts | 9° |
| 2026-05-06 19:53 | 4.32429 | -74.84797 | 26699 ft | 440 kts | 8° |
| 2026-05-06 19:53 | 4.35440 | -74.84422 | 25797 ft | 431 kts | 9° |
| 2026-05-06 19:53 | 4.38391 | -74.84050 | 24862 ft | 423 kts | 9° |
| 2026-05-06 19:54 | 4.41291 | -74.83676 | 23963 ft | 417 kts | 9° |
| 2026-05-06 19:54 | 4.44026 | -74.83316 | 23041 ft | 412 kts | 9° |
| 2026-05-06 19:54 | 4.46810 | -74.82948 | 22055 ft | 406 kts | 9° |
| 2026-05-06 19:54 | 4.49595 | -74.82580 | 21284 ft | 397 kts | 9° |
| 2026-05-06 19:55 | 4.52277 | -74.82228 | 20749 ft | 382 kts | 9° |
| 2026-05-06 19:55 | 4.54886 | -74.81881 | 20068 ft | 376 kts | 10° |
| 2026-05-06 19:55 | 4.57467 | -74.81538 | 19704 ft | 371 kts | 10° |
| 2026-05-06 19:55 | 4.60031 | -74.81197 | 19273 ft | 370 kts | 10° |
| 2026-05-06 19:56 | 4.62564 | -74.80860 | 18925 ft | 365 kts | 10° |
| 2026-05-06 19:56 | 4.65083 | -74.80526 | 18467 ft | 365 kts | 10° |
| 2026-05-06 19:56 | 4.67595 | -74.80195 | 18076 ft | 361 kts | 10° |
| 2026-05-06 19:56 | 4.70094 | -74.79866 | 17566 ft | 360 kts | 10° |
| 2026-05-06 19:57 | 4.72566 | -74.79532 | 17255 ft | 354 kts | 13° |
| 2026-05-06 19:57 | 4.74810 | -74.78810 | 17102 ft | 334 kts | 30° |
| 2026-05-06 19:57 | 4.76669 | -74.77521 | 16540 ft | 320 kts | 47° |
| 2026-05-06 19:57 | 4.78000 | -74.75795 | 16216 ft | 310 kts | 63° |
| 2026-05-06 19:58 | 4.78845 | -74.73821 | 15993 ft | 307 kts | 70° |
| 2026-05-06 19:58 | 4.79609 | -74.71826 | 15766 ft | 307 kts | 70° |
| 2026-05-06 19:58 | 4.80379 | -74.69836 | 15535 ft | 304 kts | 70° |
| 2026-05-06 19:58 | 4.81142 | -74.67865 | 15310 ft | 303 kts | 70° |
| 2026-05-06 19:59 | 4.81903 | -74.65895 | 15085 ft | 304 kts | 70° |
| 2026-05-06 19:59 | 4.82664 | -74.63929 | 14861 ft | 301 kts | 70° |
| 2026-05-06 19:59 | 4.83419 | -74.61972 | 14636 ft | 300 kts | 70° |
| 2026-05-06 19:59 | 4.84175 | -74.60012 | 14407 ft | 300 kts | 70° |
| 2026-05-06 20:00 | 4.84926 | -74.58066 | 14179 ft | 298 kts | 70° |
| 2026-05-06 20:00 | 4.85673 | -74.56132 | 13950 ft | 298 kts | 70° |
| 2026-05-06 20:00 | 4.86421 | -74.54199 | 13738 ft | 297 kts | 70° |
| 2026-05-06 20:00 | 4.87157 | -74.52297 | 13494 ft | 295 kts | 70° |
| 2026-05-06 20:01 | 4.87893 | -74.50388 | 13259 ft | 295 kts | 70° |
| 2026-05-06 20:01 | 4.88634 | -74.48464 | 13095 ft | 297 kts | 70° |
| 2026-05-06 20:01 | 4.89370 | -74.46551 | 12853 ft | 292 kts | 70° |
| 2026-05-06 20:01 | 4.90077 | -74.44684 | 12755 ft | 281 kts | 74° |
| 2026-05-06 20:02 | 4.90326 | -74.42790 | 12649 ft | 271 kts | 95° |
| 2026-05-06 20:02 | 4.89885 | -74.41023 | 12535 ft | 260 kts | 115° |
| 2026-05-06 20:02 | 4.88879 | -74.39568 | 12210 ft | 252 kts | 135° |
| 2026-05-06 20:02 | 4.87563 | -74.38444 | 11881 ft | 245 kts | 135° |
| 2026-05-06 20:03 | 4.86424 | -74.37222 | 11703 ft | 235 kts | 128° |
| 2026-05-06 20:03 | 4.85443 | -74.35948 | 11733 ft | 229 kts | 126° |
| 2026-05-06 20:03 | 4.84492 | -74.34682 | 11782 ft | 226 kts | 126° |
| 2026-05-06 20:03 | 4.83549 | -74.33432 | 11814 ft | 223 kts | 126° |
| 2026-05-06 20:04 | 4.82600 | -74.32177 | 11798 ft | 228 kts | 125° |
| 2026-05-06 20:04 | 4.81648 | -74.30919 | 11591 ft | 226 kts | 125° |
| 2026-05-06 20:04 | 4.80697 | -74.29663 | 11340 ft | 226 kts | 126° |
| 2026-05-06 20:04 | 4.79745 | -74.28405 | 11087 ft | 227 kts | 126° |
| 2026-05-06 20:05 | 4.78791 | -74.27144 | 10821 ft | 225 kts | 126° |
| 2026-05-06 20:05 | 4.77859 | -74.25913 | 10572 ft | 219 kts | 126° |
| 2026-05-06 20:05 | 4.76959 | -74.24725 | 10350 ft | 209 kts | 126° |
| 2026-05-06 20:05 | 4.76115 | -74.23610 | 10111 ft | 198 kts | 126° |
| 2026-05-06 20:06 | 4.75303 | -74.22537 | 9855 ft | 188 kts | 126° |
| 2026-05-06 20:06 | 4.74539 | -74.21529 | 9669 ft | 177 kts | 126° |
| 2026-05-06 20:06 | 4.73811 | -74.20567 | 9484 ft | 171 kts | 127° |
| 2026-05-06 20:06 | 4.73103 | -74.19631 | 9243 ft | 166 kts | 127° |
| 2026-05-06 20:07 | 4.72409 | -74.18713 | 8945 ft | 165 kts | 127° |
| 2026-05-06 20:07 | 4.71710 | -74.17789 | 8679 ft | 166 kts | 127° |
| 2026-05-06 20:07 | 4.71009 | -74.16857 | 8418 ft | 165 kts | 128° |
| 2026-05-06 20:07 | 4.70360 | -74.16004 | 8373 ft | 133 kts | 127° |
| 2026-05-06 20:08 | 4.69911 | -74.15403 | 8375 ft | 74 kts | 127° |
| 2026-05-06 20:08 | 4.69747 | -74.15163 | 8373 ft | 33 kts | 109° |
| 2026-05-06 20:08 | 4.69713 | -74.14960 | 8372 ft | 20 kts | 96° |
| 2026-05-06 20:08 | 4.69706 | -74.14903 | 8373 ft | 0 kts | 94° |
| 2026-05-06 20:09 | 4.69706 | -74.14901 | 8373 ft | 2 kts | 94° |
| 2026-05-06 20:09 | 4.69724 | -74.14844 | 8373 ft | 13 kts | 59° |
| 2026-05-06 20:09 | 4.69792 | -74.14788 | 8372 ft | 13 kts | 36° |
| 2026-05-06 20:10 | 4.69854 | -74.14733 | 8372 ft | 11 kts | 70° |
| 2026-05-06 20:10 | 4.69817 | -74.14670 | 8373 ft | 11 kts | 129° |
| 2026-05-06 20:10 | 4.69807 | -74.14640 | 8373 ft | 3 kts | 74° |
| 2026-05-06 20:10 | 4.69816 | -74.14618 | 8371 ft | 3 kts | 69° |
| 2026-05-06 20:11 | 4.69820 | -74.14607 | 8372 ft | 1 kts | 68° |
| 2026-05-06 20:11 | 4.69826 | -74.14594 | 8372 ft | 2 kts | 67° |
| 2026-05-06 20:11 | 4.69827 | -74.14592 | 8371 ft | 0 kts | 67° |